createdAt,value
2022-11-02T00:02:25.550Z,95581.37
2022-11-02T00:04:51.834Z,95580.19
2022-11-02T00:07:18.178Z,95582.30
2022-11-02T00:09:44.516Z,95583.59
2022-11-02T00:12:10.850Z,95571.61
2022-11-02T00:14:37.221Z,95571.61
2022-11-02T00:17:03.617Z,95582.44
2022-11-02T00:19:29.958Z,95585.95
2022-11-02T00:21:56.329Z,95587.14
2022-11-02T00:24:22.659Z,95585.02
2022-11-02T00:26:48.997Z,95583.73
2022-11-02T00:29:15.334Z,95583.37
2022-11-02T00:31:41.676Z,95583.37
2022-11-02T00:34:08.009Z,95583.96
2022-11-02T00:36:34.353Z,95576.21
2022-11-02T00:39:00.702Z,95578.43
2022-11-02T00:41:27.051Z,95583.59
2022-11-02T00:43:53.395Z,95579.72
2022-11-02T00:46:19.769Z,95581.48
2022-11-02T00:48:46.112Z,95582.77
2022-11-02T00:51:12.460Z,95583.23
2022-11-02T00:53:38.808Z,95579.02
2022-11-02T00:56:05.146Z,95572.20
2022-11-02T00:58:31.484Z,95565.62
2022-11-02T01:00:57.907Z,95569.98
2022-11-02T01:03:24.207Z,95572.56
2022-11-02T01:05:50.509Z,95571.28
2022-11-02T01:08:16.849Z,95569.62
2022-11-02T01:10:47.166Z,95567.04
2022-11-02T01:13:09.561Z,95569.98
2022-11-02T01:15:35.902Z,95569.98
2022-11-02T01:18:02.500Z,95567.14
2022-11-02T01:20:28.605Z,95567.14
2022-11-02T01:22:54.959Z,95566.34
2022-11-02T01:25:21.303Z,95569.26
2022-11-02T01:27:47.648Z,95570.55
2022-11-02T01:30:13.987Z,95555.74
2022-11-02T01:32:40.324Z,95555.74
2022-11-02T01:35:06.672Z,95573.59
2022-11-02T01:37:33.048Z,95557.96
2022-11-02T01:39:59.387Z,95557.96
2022-11-02T01:42:25.763Z,95563.86
2022-11-02T01:44:52.075Z,95548.69
2022-11-02T01:47:18.412Z,95548.69
2022-11-02T01:49:44.742Z,95565.15
2022-11-02T01:52:11.094Z,95558.00
2022-11-02T01:54:37.437Z,95554.92
2022-11-02T01:57:03.792Z,95558.92
2022-11-02T01:59:30.131Z,95565.74
2022-11-02T02:01:56.535Z,95556.44
2022-11-02T02:04:22.816Z,95557.27
2022-11-02T02:06:50.131Z,95557.63
2022-11-02T02:09:15.490Z,95554.69
2022-11-02T02:11:41.873Z,95555.38
2022-11-02T02:14:08.174Z,95555.38
2022-11-02T02:16:34.568Z,95554.91
2022-11-02T02:19:00.853Z,95554.91
2022-11-02T02:21:27.246Z,95550.68
2022-11-02T02:23:53.578Z,95547.63
2022-11-02T02:26:19.918Z,95542.14
2022-11-02T02:28:46.299Z,95540.84
2022-11-02T02:31:12.597Z,95544.22
2022-11-02T02:33:38.935Z,95539.55
2022-11-02T02:36:05.995Z,95546.47
2022-11-02T02:38:32.344Z,95546.47
2022-11-02T02:40:58.703Z,95544.45
2022-11-02T02:43:25.032Z,95547.77
2022-11-02T02:45:51.390Z,95547.77
2022-11-02T02:48:17.729Z,95547.03
2022-11-02T02:50:44.075Z,95546.23
2022-11-02T02:53:10.411Z,95542.70
2022-11-02T02:55:36.758Z,95547.99
2022-11-02T02:58:03.324Z,95541.54
2022-11-02T03:00:29.451Z,95542.83
2022-11-02T03:02:55.784Z,95526.14
2022-11-02T03:05:22.129Z,95526.14
2022-11-02T03:07:48.465Z,95536.02
2022-11-02T03:10:14.815Z,95536.02
2022-11-02T03:12:41.179Z,95542.59
2022-11-02T03:15:07.541Z,95546.10
2022-11-02T03:17:33.885Z,95543.89
2022-11-02T03:20:00.271Z,95547.86
2022-11-02T03:22:26.613Z,95552.09
2022-11-02T03:24:52.974Z,95556.06
2022-11-02T03:27:19.333Z,95553.48
2022-11-02T03:29:45.678Z,95550.08
2022-11-02T03:32:12.027Z,95552.66
2022-11-02T03:34:39.335Z,95551.83
2022-11-02T03:37:04.807Z,95552.32
2022-11-02T03:39:31.083Z,95551.83
2022-11-02T03:41:57.422Z,95547.72
2022-11-02T03:44:23.795Z,95548.91
2022-11-02T03:46:50.129Z,95547.72
2022-11-02T03:49:16.506Z,95548.19
2022-11-02T03:51:42.847Z,95553.71
2022-11-02T03:54:09.192Z,95552.88
2022-11-02T03:56:35.533Z,95550.43
2022-11-02T03:59:01.879Z,95552.55
2022-11-02T04:01:28.256Z,95548.77
2022-11-02T04:03:54.569Z,95545.73
2022-11-02T04:06:20.912Z,95544.08
2022-11-02T04:08:47.246Z,95547.12
2022-11-02T04:11:13.617Z,95543.25
2022-11-02T04:13:39.954Z,95539.50
2022-11-02T04:16:06.294Z,95543.38
2022-11-02T04:18:32.652Z,95542.09
2022-11-02T04:20:58.989Z,95537.39
2022-11-02T04:23:25.335Z,95538.67
2022-11-02T04:25:51.682Z,95534.91
2022-11-02T04:28:18.020Z,95541.02
2022-11-02T04:30:46.777Z,95540.06
2022-11-02T04:33:13.118Z,95539.60
2022-11-02T04:35:39.455Z,95537.61
2022-11-02T04:38:06.181Z,95541.58
2022-11-02T04:40:32.147Z,95540.56
2022-11-02T04:42:58.491Z,95542.65
2022-11-02T04:45:24.899Z,95540.56
2022-11-02T04:47:51.237Z,95541.02
2022-11-02T04:50:17.588Z,95548.17
2022-11-02T04:52:43.929Z,95547.81
2022-11-02T04:55:10.283Z,95548.77
2022-11-02T04:57:36.654Z,95548.77
2022-11-02T05:00:02.973Z,95556.05
2022-11-02T05:02:29.439Z,95552.17
2022-11-02T05:04:55.660Z,95543.60
2022-11-02T05:07:22.006Z,95545.72
2022-11-02T05:09:48.347Z,95544.89
2022-11-02T05:12:14.693Z,95545.36
2022-11-02T05:14:41.054Z,95551.34
2022-11-02T05:17:07.387Z,95551.68
2022-11-02T05:19:33.730Z,95562.50
2022-11-02T05:22:00.090Z,95568.45
2022-11-02T05:24:26.418Z,95566.38
2022-11-02T05:26:54.019Z,95566.83
2022-11-02T05:29:19.105Z,95569.52
2022-11-02T05:31:45.461Z,95572.09
2022-11-02T05:34:11.798Z,95574.58
2022-11-02T05:36:38.166Z,95574.58
2022-11-02T05:39:04.546Z,95576.20
2022-11-02T05:41:30.885Z,95581.86
2022-11-02T05:43:57.257Z,95586.41
2022-11-02T05:46:23.599Z,95583.48
2022-11-02T05:48:50.078Z,95586.19
2022-11-02T05:51:16.418Z,95596.52
2022-11-02T05:53:42.756Z,95596.84
2022-11-02T05:56:09.119Z,95599.56
2022-11-02T05:58:36.705Z,95603.30
2022-11-02T06:01:01.842Z,95607.67
2022-11-02T06:03:28.163Z,95613.16
2022-11-02T06:05:54.508Z,95614.45
2022-11-02T06:08:20.862Z,95624.22
2022-11-02T06:10:47.228Z,95623.39
2022-11-02T06:13:13.590Z,95622.10
2022-11-02T06:15:39.934Z,95622.66
2022-11-02T06:18:06.287Z,95623.39
2022-11-02T06:20:32.627Z,95625.97
2022-11-02T06:22:58.982Z,95628.09
2022-11-02T06:25:25.319Z,95622.44
2022-11-02T06:27:51.699Z,95631.01
2022-11-02T06:30:18.042Z,95628.80
2022-11-02T06:32:44.402Z,95628.20
2022-11-02T06:35:10.761Z,95628.20
2022-11-02T06:37:37.110Z,95599.03
2022-11-02T06:40:03.448Z,95635.73
2022-11-02T06:42:29.825Z,95632.22
2022-11-02T06:44:56.164Z,95637.61
2022-11-02T06:47:22.548Z,95632.22
2022-11-02T06:49:48.882Z,95634.80
2022-11-02T06:52:15.226Z,95631.85
2022-11-02T06:54:41.572Z,95630.09
2022-11-02T06:57:07.908Z,95625.67
2022-11-02T06:59:34.250Z,95631.66
2022-11-02T07:02:00.709Z,95622.12
2022-11-02T07:04:26.949Z,95620.97
2022-11-02T07:06:53.298Z,95620.97
2022-11-02T07:09:19.644Z,95618.63
2022-11-02T07:11:45.993Z,95614.52
2022-11-02T07:14:12.342Z,95618.26
2022-11-02T07:16:38.693Z,95625.78
2022-11-02T07:19:05.035Z,95619.91
2022-11-02T07:21:31.388Z,95616.41
2022-11-02T07:23:57.836Z,95615.81
2022-11-02T07:26:24.173Z,95609.27
2022-11-02T07:28:53.818Z,95609.27
2022-11-02T07:31:16.866Z,95608.67
2022-11-02T07:33:43.212Z,95612.45
2022-11-02T07:36:09.568Z,95609.87
2022-11-02T07:38:35.902Z,95607.16
2022-11-02T07:41:02.278Z,95608.91
2022-11-02T07:43:28.622Z,95607.16
2022-11-02T07:45:54.985Z,95607.86
2022-11-02T07:48:21.336Z,95599.91
2022-11-02T07:50:47.688Z,95598.86
2022-11-02T07:53:14.025Z,95599.55
2022-11-02T07:55:40.384Z,95595.09
2022-11-02T07:58:06.788Z,95596.73
2022-11-02T08:00:33.139Z,95594.66
2022-11-02T08:02:59.641Z,95593.00
2022-11-02T08:05:25.884Z,95598.41
2022-11-02T08:07:52.244Z,95584.66
2022-11-02T08:10:18.583Z,95590.66
2022-11-02T08:12:44.931Z,95572.67
2022-11-02T08:15:11.337Z,95569.62
2022-11-02T08:17:37.683Z,95569.62
2022-11-02T08:20:04.071Z,95583.14
2022-11-02T08:22:30.425Z,95579.99
2022-11-02T08:24:56.775Z,95573.53
2022-11-02T08:27:23.166Z,95569.53
2022-11-02T08:29:49.589Z,95574.92
2022-11-02T08:32:15.926Z,95564.83
2022-11-02T08:34:42.284Z,95562.73
2022-11-02T08:37:08.635Z,95569.89
2022-11-02T08:39:34.991Z,95559.42
2022-11-02T08:42:01.354Z,95560.25
2022-11-02T08:44:27.718Z,95561.45
2022-11-02T08:49:20.443Z,95558.30
2022-11-02T08:51:46.800Z,95552.30
2022-11-02T08:54:13.155Z,95549.02
2022-11-02T08:56:39.518Z,95549.02
2022-11-02T08:59:05.880Z,95553.26
2022-11-02T09:01:32.283Z,95544.45
2022-11-02T09:03:58.600Z,95540.80
2022-11-02T09:06:24.953Z,95537.66
2022-11-02T09:08:53.786Z,95538.25
2022-11-02T09:11:17.679Z,95543.52
2022-11-02T09:13:44.107Z,95538.47
2022-11-02T09:16:10.398Z,95538.47
2022-11-02T09:18:37.669Z,95534.13
2022-11-02T09:21:04.031Z,95529.89
2022-11-02T09:23:30.373Z,95529.30
2022-11-02T09:25:56.761Z,95529.19
2022-11-02T09:28:23.101Z,95494.67
2022-11-02T09:30:49.439Z,95520.15
2022-11-02T09:33:15.785Z,95519.08
2022-11-02T09:35:42.141Z,95518.38
2022-11-02T09:38:08.480Z,95503.56
2022-11-02T09:40:34.828Z,95503.56
2022-11-02T09:43:01.286Z,95492.53
2022-11-02T09:45:27.556Z,95492.53
2022-11-02T09:48:24.914Z,95502.75
2022-11-02T09:50:20.280Z,95502.16
2022-11-02T09:52:46.621Z,95463.07
2022-11-02T09:55:13.917Z,95490.28
2022-11-02T09:57:39.333Z,95489.70
2022-11-02T10:00:05.671Z,95480.42
2022-11-02T10:02:32.023Z,95480.42
2022-11-02T10:04:58.343Z,95460.55
2022-11-02T10:07:24.697Z,95460.55
2022-11-02T10:09:51.037Z,95474.30
2022-11-02T10:12:17.383Z,95467.23
2022-11-02T10:14:43.734Z,95464.54
2022-11-02T10:17:10.102Z,95458.54
2022-11-02T10:19:36.444Z,95457.94
2022-11-02T10:22:02.820Z,95457.94
2022-11-02T10:24:29.183Z,95449.61
2022-11-02T10:26:55.555Z,95446.52
2022-11-02T10:29:21.885Z,95446.52
2022-11-02T10:31:48.243Z,95432.22
2022-11-02T10:34:14.575Z,95431.62
2022-11-02T10:36:40.915Z,95428.45
2022-11-02T10:39:07.313Z,95420.45
2022-11-02T10:41:33.654Z,95420.45
2022-11-02T10:44:00.029Z,95418.33
2022-11-02T10:46:26.368Z,95406.11
2022-11-02T10:48:52.715Z,95404.74
2022-11-02T10:51:19.055Z,95404.00
2022-11-02T10:53:45.683Z,95413.88
2022-11-02T10:56:11.750Z,95404.91
2022-11-02T10:58:38.089Z,95395.14
2022-11-02T11:01:04.493Z,95393.52
2022-11-02T11:03:30.772Z,95398.55
2022-11-02T11:05:57.113Z,95393.62
2022-11-02T11:08:23.461Z,95393.62
2022-11-02T11:10:49.811Z,95377.42
2022-11-02T11:20:35.212Z,95374.13
2022-11-02T11:23:01.777Z,95362.84
2022-11-02T11:25:28.509Z,95357.89
2022-11-02T11:27:54.230Z,95355.66
2022-11-02T11:30:33.553Z,95354.02
2022-11-02T11:32:46.957Z,95360.01
2022-11-02T11:35:13.311Z,95351.28
2022-11-02T11:37:39.656Z,95351.28
2022-11-02T11:40:06.019Z,95348.84
2022-11-02T11:42:32.357Z,95340.25
2022-11-02T11:44:58.815Z,95340.25
2022-11-02T11:47:25.207Z,95339.90
2022-11-02T11:52:18.135Z,95321.33
2022-11-02T11:54:44.485Z,95332.39
2022-11-02T11:57:10.873Z,95330.12
2022-11-02T11:59:37.212Z,95322.94
2022-11-02T12:02:04.228Z,95320.49
2022-11-02T12:04:29.903Z,95320.49
2022-11-02T12:06:56.243Z,95287.76
2022-11-02T12:09:22.590Z,95312.48
2022-11-02T12:11:48.926Z,95312.48
2022-11-02T12:14:15.328Z,95312.73
2022-11-02T12:16:41.655Z,95306.99
2022-11-02T12:19:08.004Z,95304.25
2022-11-02T12:21:34.335Z,95300.13
2022-11-02T12:24:00.677Z,95278.66
2022-11-02T12:26:27.008Z,95294.95
2022-11-02T12:28:53.450Z,95294.84
2022-11-02T12:31:19.789Z,95291.69
2022-11-02T12:33:46.205Z,95293.70
2022-11-02T12:36:12.545Z,95285.65
2022-11-02T12:38:38.898Z,95286.57
2022-11-02T12:41:05.237Z,95284.45
2022-11-02T12:43:33.249Z,95284.45
2022-11-02T12:45:57.941Z,95264.91
2022-11-02T12:48:24.283Z,95264.91
2022-11-02T12:50:50.625Z,95279.33
2022-11-02T12:53:17.025Z,95275.97
2022-11-02T12:55:43.375Z,95272.09
2022-11-02T12:58:09.724Z,95264.33
2022-11-02T13:00:36.140Z,95271.36
2022-11-02T13:03:02.584Z,95271.36
2022-11-02T13:05:28.857Z,95270.19
2022-11-02T13:07:55.180Z,95255.32
2022-11-02T13:10:21.529Z,95270.19
2022-11-02T13:12:47.878Z,95267.95
2022-11-02T13:15:14.217Z,95262.42
2022-11-02T13:17:40.614Z,95246.06
2022-11-02T13:20:06.972Z,95237.23
2022-11-02T13:22:33.317Z,95260.66
2022-11-02T13:24:59.655Z,95259.53
2022-11-02T13:27:40.821Z,95263.86
2022-11-02T13:29:52.336Z,95257.91
2022-11-02T13:32:18.680Z,95257.91
2022-11-02T13:34:45.050Z,95262.94
2022-11-02T13:37:11.394Z,95261.91
2022-11-02T13:39:37.739Z,95256.52
2022-11-02T13:42:04.088Z,95263.08
2022-11-02T13:44:30.422Z,95263.18
2022-11-02T13:46:58.692Z,95257.03
2022-11-02T13:49:23.119Z,95250.47
2022-11-02T13:51:49.462Z,95258.13
2022-11-02T13:54:15.797Z,95254.03
2022-11-02T13:56:42.141Z,95250.00
2022-11-02T13:59:08.489Z,95250.00
2022-11-02T14:01:34.897Z,95251.19
2022-11-02T14:04:02.428Z,95242.30
2022-11-02T14:06:27.547Z,95252.37
2022-11-02T14:08:53.886Z,95250.83
2022-11-02T14:11:20.229Z,95253.06
2022-11-02T14:13:46.561Z,95254.36
2022-11-02T14:16:12.967Z,95254.36
2022-11-02T14:18:39.313Z,95230.49
2022-11-02T14:21:05.672Z,95251.30
2022-11-02T14:23:32.020Z,95246.78
2022-11-02T14:25:59.317Z,95256.94
2022-11-02T14:28:24.724Z,95258.53
2022-11-02T14:30:51.062Z,95258.42
2022-11-02T14:33:17.414Z,95265.69
2022-11-02T14:35:43.760Z,95262.16
2022-11-02T14:38:10.093Z,95259.78
2022-11-02T14:40:36.530Z,95268.37
2022-11-02T14:43:03.148Z,95268.37
2022-11-02T14:45:29.239Z,95270.11
2022-11-02T14:47:55.569Z,95262.26
2022-11-02T14:50:21.914Z,95270.94
2022-11-02T14:52:48.254Z,95264.69
2022-11-02T14:55:14.599Z,95269.88
2022-11-02T14:57:40.942Z,95269.66
2022-11-02T15:00:07.362Z,95273.23
2022-11-02T15:02:37.264Z,95274.87
2022-11-02T15:05:00.015Z,95274.87
2022-11-02T15:07:26.337Z,95278.97
2022-11-02T15:09:52.684Z,95281.70
2022-11-02T15:12:19.039Z,95281.70
2022-11-02T15:14:45.414Z,95281.95
2022-11-02T15:17:11.760Z,95290.30
2022-11-02T15:19:38.114Z,95294.53
2022-11-02T15:22:04.457Z,95294.64
2022-11-02T15:27:16.076Z,95287.96
2022-11-02T15:29:42.435Z,95294.43
2022-11-02T15:32:08.780Z,95277.99
2022-11-02T15:34:35.110Z,95299.97
2022-11-02T15:37:01.454Z,95299.97
2022-11-02T15:39:27.789Z,95305.35
2022-11-02T15:41:54.151Z,95300.43
2022-11-02T15:44:20.480Z,95299.35
2022-11-02T15:46:46.822Z,95278.03
2022-11-02T15:49:13.197Z,95304.31
2022-11-02T15:51:39.553Z,95304.19
2022-11-02T15:54:05.985Z,95312.73
2022-11-02T15:56:32.241Z,95306.52
2022-11-02T15:58:58.588Z,95313.20
2022-11-02T16:01:25.026Z,95313.20
2022-11-02T16:03:57.100Z,95315.79
2022-11-02T16:06:17.620Z,95319.52
2022-11-02T16:08:43.962Z,95318.02
2022-11-02T16:11:10.312Z,95294.55
2022-11-02T16:13:48.704Z,95322.84
2022-11-02T16:16:03.933Z,95312.64
2022-11-02T16:18:29.374Z,95312.64
2022-11-02T16:20:55.671Z,95333.17
2022-11-02T16:23:22.013Z,95329.05
2022-11-02T16:25:48.422Z,95329.77
2022-11-02T16:28:14.753Z,95337.37
2022-11-02T16:30:41.089Z,95337.16
2022-11-02T16:33:07.427Z,95340.22
2022-11-02T16:35:33.767Z,95343.27
2022-11-02T16:38:00.107Z,95333.79
2022-11-02T16:40:26.455Z,95318.21
2022-11-02T16:42:52.794Z,95345.06
2022-11-02T16:45:19.131Z,95342.02
2022-11-02T16:47:45.464Z,95351.78
2022-11-02T16:50:11.814Z,95351.78
2022-11-02T16:52:38.147Z,95356.13
2022-11-02T16:55:04.491Z,95358.50
2022-11-02T16:57:31.622Z,95357.64
2022-11-02T16:59:57.957Z,95358.97
2022-11-02T17:02:24.341Z,95361.55
2022-11-02T17:07:16.979Z,95348.98
2022-11-02T17:09:43.318Z,95340.77
2022-11-02T17:12:10.888Z,95343.09
2022-11-02T17:14:35.998Z,95364.00
2022-11-02T17:17:02.387Z,95370.36
2022-11-02T17:19:28.773Z,95372.94
2022-11-02T17:21:55.110Z,95369.06
2022-11-02T17:24:21.453Z,95368.23
2022-11-02T17:26:47.810Z,95371.55
2022-11-02T17:29:14.163Z,95371.08
2022-11-02T17:31:40.491Z,95340.00
2022-11-02T17:34:06.832Z,95343.27
2022-11-02T17:36:33.169Z,95343.27
2022-11-02T17:38:59.530Z,95367.91
2022-11-02T17:41:25.859Z,95365.22
2022-11-02T17:43:52.220Z,95354.19
2022-11-02T17:46:18.552Z,95367.80
2022-11-02T17:48:44.898Z,95371.80
2022-11-02T17:51:11.227Z,95366.30
2022-11-02T17:53:37.636Z,95369.34
2022-11-02T17:56:03.965Z,95377.32
2022-11-02T17:58:30.314Z,95376.49
2022-11-02T18:00:56.739Z,95361.73
2022-11-02T18:03:25.541Z,95380.16
2022-11-02T18:05:50.770Z,95380.63
2022-11-02T18:08:15.702Z,95381.23
2022-11-02T18:10:42.030Z,95374.30
2022-11-02T18:13:08.611Z,95376.63
2022-11-02T18:15:34.753Z,95381.69
2022-11-02T18:18:01.089Z,95384.75
2022-11-02T18:20:27.420Z,95381.48
2022-11-02T18:22:53.767Z,95374.77
2022-11-02T18:27:46.448Z,95379.82
2022-11-02T18:30:12.782Z,95381.48
2022-11-02T18:32:39.168Z,95366.56
2022-11-02T18:35:05.545Z,95386.28
2022-11-02T18:37:31.875Z,95381.36
2022-11-02T18:39:58.206Z,95382.41
2022-11-02T18:42:24.550Z,95380.89
2022-11-02T18:44:50.880Z,95385.70
2022-11-02T18:47:17.217Z,95392.06
2022-11-02T18:49:43.651Z,95391.70
2022-11-02T18:52:09.990Z,95390.88
2022-11-02T18:54:36.319Z,95402.05
2022-11-02T18:57:02.661Z,95402.15
2022-11-02T18:59:29.004Z,95397.00
2022-11-02T19:01:55.515Z,95399.34
2022-11-02T19:04:21.735Z,95388.91
2022-11-02T19:06:48.071Z,95388.91
2022-11-02T19:09:14.406Z,95388.80
2022-11-02T19:11:40.749Z,95403.02
2022-11-02T19:14:07.112Z,95403.02
2022-11-02T19:16:33.448Z,95395.04
2022-11-02T19:18:59.790Z,95411.34
2022-11-02T19:21:26.130Z,95403.73
2022-11-02T19:23:52.469Z,95407.94
2022-11-02T19:26:18.845Z,95407.94
2022-11-02T19:28:45.145Z,95413.34
2022-11-02T19:31:11.487Z,95418.41
2022-11-02T19:33:37.818Z,95415.94
2022-11-02T19:36:04.161Z,95420.17
2022-11-02T19:38:30.491Z,95422.06
2022-11-02T19:40:56.834Z,95422.06
2022-11-02T19:43:23.170Z,95422.06
2022-11-02T19:45:49.517Z,95405.86
2022-11-02T19:48:15.861Z,95405.86
2022-11-02T19:50:42.205Z,95423.58
2022-11-02T19:53:08.545Z,95406.91
2022-11-02T19:55:34.885Z,95418.05
2022-11-02T19:58:01.260Z,95415.61
2022-11-02T20:00:27.596Z,95418.88
2022-11-02T20:02:53.998Z,95425.34
2022-11-02T20:05:20.275Z,95425.34
2022-11-02T20:07:46.633Z,95417.36
2022-11-02T20:10:12.972Z,95417.39
2022-11-02T20:12:39.348Z,95434.02
2022-11-02T20:15:05.694Z,95436.97
2022-11-02T20:17:46.540Z,95430.64
2022-11-02T20:19:58.376Z,95430.64
2022-11-02T20:22:24.742Z,95433.34
2022-11-02T20:24:51.087Z,95435.45
2022-11-02T20:27:17.416Z,95439.33
2022-11-02T20:29:43.761Z,95438.14
2022-11-02T20:32:10.106Z,95422.80
2022-11-02T20:34:36.447Z,95421.50
2022-11-02T20:37:02.838Z,95422.80
2022-11-02T20:39:29.175Z,95422.80
2022-11-02T20:41:55.509Z,95429.59
2022-11-02T20:44:21.866Z,95416.08
2022-11-02T20:46:52.696Z,95431.00
2022-11-02T20:49:21.889Z,95430.30
2022-11-02T20:51:40.916Z,95439.67
2022-11-02T20:54:07.302Z,95436.63
2022-11-02T20:56:33.643Z,95428.53
2022-11-02T20:58:59.989Z,95436.77
2022-11-02T21:01:26.391Z,95434.28
2022-11-02T21:03:52.697Z,95425.60
2022-11-02T21:06:19.022Z,95427.47
2022-11-02T21:08:45.366Z,95413.41
2022-11-02T21:11:11.701Z,95413.41
2022-11-02T21:13:38.040Z,95422.66
2022-11-02T21:16:04.376Z,95422.30
2022-11-02T21:18:30.723Z,95419.84
2022-11-02T21:20:57.058Z,95427.60
2022-11-02T21:23:23.395Z,95423.26
2022-11-02T21:25:49.745Z,95420.67
2022-11-02T21:28:16.084Z,95425.38
2022-11-02T21:30:42.467Z,95423.36
2022-11-02T21:33:09.197Z,95413.41
2022-11-02T21:35:35.165Z,95413.41
2022-11-02T21:38:05.273Z,95429.00
2022-11-02T21:40:27.859Z,95426.41
2022-11-02T21:42:54.197Z,95421.27
2022-11-02T21:45:25.221Z,95421.27
2022-11-02T21:47:46.877Z,95430.89
2022-11-02T21:50:13.219Z,95424.44
2022-11-02T21:52:42.490Z,95427.48
2022-11-02T21:55:07.152Z,95427.95
2022-11-02T21:57:32.258Z,95436.42
2022-11-02T21:59:58.591Z,95425.72
2022-11-02T22:02:25.051Z,95425.72
2022-11-02T22:04:51.276Z,95426.66
2022-11-02T22:07:17.622Z,95424.33
2022-11-02T22:09:43.967Z,95424.33
2022-11-02T22:12:10.312Z,95428.41
2022-11-02T22:14:36.678Z,95432.28
2022-11-02T22:17:11.345Z,95431.49
2022-11-02T22:19:29.349Z,95418.91
2022-11-02T22:21:55.691Z,95418.91
2022-11-02T22:24:22.029Z,95435.01
2022-11-02T22:26:48.376Z,95429.48
2022-11-02T22:29:14.716Z,95433.94
2022-11-02T22:31:41.059Z,95433.94
2022-11-02T22:34:07.403Z,95434.51
2022-11-02T22:36:33.751Z,95441.33
2022-11-02T22:39:00.104Z,95441.33
2022-11-02T22:41:26.421Z,95448.52
2022-11-02T22:43:52.816Z,95445.45
2022-11-02T22:46:19.148Z,95445.58
2022-11-02T22:48:45.473Z,95445.58
2022-11-02T22:51:11.817Z,95446.41
2022-11-02T22:53:38.187Z,95440.05
2022-11-02T22:56:04.531Z,95429.96
2022-11-02T22:58:30.884Z,95439.22
2022-11-02T23:00:57.306Z,95435.48
2022-11-02T23:03:23.571Z,95440.19
2022-11-02T23:05:49.920Z,95440.19
2022-11-02T23:08:16.316Z,95444.29
2022-11-02T23:10:42.597Z,95445.45
2022-11-02T23:13:09.267Z,95446.98
2022-11-02T23:15:35.280Z,95446.98
2022-11-02T23:18:01.621Z,95446.28
2022-11-02T23:20:27.964Z,95447.68
2022-11-02T23:22:54.304Z,95452.28
2022-11-02T23:25:20.658Z,95453.67
2022-11-02T23:27:46.991Z,95444.63
2022-11-02T23:30:13.332Z,95449.80
2022-11-02T23:32:39.664Z,95446.85
2022-11-02T23:35:06.014Z,95446.85
2022-11-02T23:37:32.348Z,95443.91
2022-11-02T23:39:58.692Z,95443.91
2022-11-02T23:42:25.025Z,95438.62
2022-11-02T23:44:51.366Z,95438.62
2022-11-02T23:47:17.704Z,95454.24
2022-11-02T23:49:44.048Z,95455.89
2022-11-02T23:52:10.380Z,95463.84
2022-11-02T23:54:36.718Z,95458.36
2022-11-02T23:57:03.055Z,95460.94
2022-11-02T23:59:29.406Z,95443.67
